Fulton, Missouri
Current Conditions -  °F | °C
As of 8:54 PM on Thursday 27 Nov 2014 (Local Time) from KCOU Reporting Station
Clear Clear  
Wind Chill: 23°   Ceiling: Unl
Heat Index: 30°   Visibility: 10mi
Dew Point: 24°   Wind: 7mph
Humidity: 79%   Direction: 100°E
Pressure: 30.38"   Gusts: NA
Location:  38.85°N, 91.95°W
Report Text: KCOU 280254Z AUTO 10006KT 10SM CLR M01/M04 A3038 RMK AO2 SLP298 T10111044 58013
Loading
Personal Weather Stations






























Interactive Weather Map New forecast layout! Learn more

10-Day Weather Forecast

Advertisements
Track Severe Weather on mobile